createdAt,value
2022-08-14T00:02:32.443Z,100901.69
2022-08-14T00:05:02.462Z,100898.16
2022-08-14T00:07:35.537Z,100898.66
2022-08-14T00:10:49.845Z,100898.91
2022-08-14T00:13:07.059Z,100898.91
2022-08-14T00:15:44.084Z,100898.63
2022-08-14T00:18:30.993Z,100895.34
2022-08-14T00:21:11.023Z,100893.72
2022-08-14T00:23:41.959Z,100891.50
2022-08-14T00:26:21.693Z,100890.69
2022-08-14T00:28:53.116Z,100892.84
2022-08-14T00:31:35.190Z,100884.97
2022-08-14T00:34:36.733Z,100884.69
2022-08-14T00:37:06.627Z,100883.06
2022-08-14T00:39:37.915Z,100882.50
2022-08-14T00:42:21.191Z,100872.97
2022-08-14T00:44:51.751Z,100885.75
2022-08-14T00:47:26.887Z,100881.41
2022-08-14T00:50:02.042Z,100877.84
2022-08-14T00:52:35.015Z,100870.78
2022-08-14T00:55:05.963Z,100867.22
2022-08-14T00:57:40.351Z,100869.41
2022-08-14T01:00:34.212Z,100869.94
2022-08-14T01:03:08.764Z,100859.88
2022-08-14T01:05:50.679Z,100868.56
2022-08-14T01:08:51.415Z,100858.75
2022-08-14T01:11:19.026Z,100863.13
2022-08-14T01:13:55.830Z,100865.00
2022-08-14T01:16:28.038Z,100862.28
2022-08-14T01:19:13.973Z,100870.44
2022-08-14T01:21:52.754Z,100867.41
2022-08-14T01:24:30.402Z,100867.41
2022-08-14T01:27:05.664Z,100857.59
2022-08-14T01:30:03.172Z,100855.94
2022-08-14T01:32:30.019Z,100855.47
2022-08-14T01:35:20.561Z,100859.25
2022-08-14T01:37:56.180Z,100854.84
2022-08-14T01:40:36.389Z,100859.25
2022-08-14T01:43:18.763Z,100860.28
2022-08-14T01:45:57.693Z,100853.22
2022-08-14T01:48:38.845Z,100853.00
2022-08-14T01:51:19.745Z,100857.59
2022-08-14T01:53:57.715Z,100865.19
2022-08-14T01:56:39.187Z,100866.53
2022-08-14T01:59:18.328Z,100860.28
2022-08-14T02:01:58.496Z,100859.72
2022-08-14T02:04:54.633Z,100855.63
2022-08-14T02:07:34.424Z,100857.50
2022-08-14T02:10:18.117Z,100854.25
2022-08-14T02:12:57.174Z,100845.25
2022-08-14T02:15:30.248Z,100852.03
2022-08-14T02:18:01.917Z,100852.03
2022-08-14T02:20:33.951Z,100858.56
2022-08-14T02:23:08.364Z,100849.84
2022-08-14T02:25:42.354Z,100847.41
2022-08-14T02:28:22.505Z,100841.97
2022-08-14T02:31:03.908Z,100831.34
2022-08-14T02:33:42.016Z,100840.31
2022-08-14T02:37:02.664Z,100836.22
2022-08-14T02:39:04.965Z,100831.59
2022-08-14T02:41:45.030Z,100835.66
2022-08-14T02:44:29.589Z,100824.78
2022-08-14T02:47:01.105Z,100817.72
2022-08-14T02:49:34.156Z,100821.78
2022-08-14T02:52:27.018Z,100809.78
2022-08-14T02:54:57.182Z,100819.84
2022-08-14T02:57:39.505Z,100826.59
2022-08-14T03:00:18.660Z,100830.16
2022-08-14T03:02:58.790Z,100814.91
2022-08-14T03:05:32.914Z,100820.34
2022-08-14T03:08:11.158Z,100817.06
2022-08-14T03:10:41.727Z,100812.72
2022-08-14T03:13:22.059Z,100811.31
2022-08-14T03:15:58.121Z,100817.03
2022-08-14T03:18:31.403Z,100819.75
2022-08-14T03:21:07.769Z,100817.03
2022-08-14T03:23:39.958Z,100813.50
2022-08-14T03:26:13.040Z,100810.22
2022-08-14T03:28:52.826Z,100809.13
2022-08-14T03:31:26.032Z,100802.31
2022-08-14T03:33:59.933Z,100808.28
2022-08-14T03:37:38.050Z,100814.78
2022-08-14T03:39:24.324Z,100812.06
2022-08-14T03:41:59.963Z,100805.81
2022-08-14T03:45:19.913Z,100810.44
2022-08-14T03:47:38.163Z,100804.75
2022-08-14T03:50:27.651Z,100806.38
2022-08-14T03:53:01.733Z,100793.88
2022-08-14T03:55:35.017Z,100796.84
2022-08-14T03:58:04.912Z,100794.13
2022-08-14T04:00:43.794Z,100787.88
2022-08-14T04:03:24.074Z,100798.75
2022-08-14T04:05:55.222Z,100795.78
2022-08-14T04:08:31.030Z,100787.06
2022-08-14T04:11:02.868Z,100788.69
2022-08-14T04:13:41.200Z,100791.97
2022-08-14T04:16:16.672Z,100785.72
2022-08-14T04:18:48.945Z,100790.34
2022-08-14T04:21:20.351Z,100790.34
2022-08-14T04:23:57.339Z,100790.34
2022-08-14T04:26:42.336Z,100790.84
2022-08-14T04:29:16.041Z,100795.22
2022-08-14T04:32:57.601Z,100796.28
2022-08-14T04:34:42.456Z,100795.22
2022-08-14T04:37:36.730Z,100794.66
2022-08-14T04:40:21.732Z,100793.56
2022-08-14T04:43:06.366Z,100787.56
2022-08-14T04:45:40.770Z,100785.69
2022-08-14T04:48:13.229Z,100790.28
2022-08-14T04:50:45.501Z,100785.97
2022-08-14T04:53:34.755Z,100785.19
2022-08-14T04:56:10.605Z,100780.59
2022-08-14T04:58:42.583Z,100780.09
2022-08-14T05:01:17.761Z,100777.91
2022-08-14T05:03:52.958Z,100782.53
2022-08-14T05:06:37.153Z,100775.78
2022-08-14T05:09:13.959Z,100772.53
2022-08-14T05:11:44.655Z,100768.75
2022-08-14T05:14:16.994Z,100770.69
2022-08-14T05:17:04.982Z,100768.25
2022-08-14T05:19:44.804Z,100769.88
2022-08-14T05:22:29.769Z,100766.13
2022-08-14T05:25:01.249Z,100766.66
2022-08-14T05:27:32.132Z,100767.47
2022-08-14T05:30:02.034Z,100763.41
2022-08-14T05:32:32.026Z,100755.28
2022-08-14T05:35:04.627Z,100756.38
2022-08-14T05:37:34.609Z,100754.56
2022-08-14T05:40:06.698Z,100756.50
2022-08-14T05:42:37.113Z,100754.59
2022-08-14T05:45:11.028Z,100761.13
2022-08-14T05:47:44.001Z,100755.97
2022-08-14T05:50:19.219Z,100747.81
2022-08-14T05:52:51.993Z,100741.84
2022-08-14T05:55:23.549Z,100738.34
2022-08-14T05:57:57.984Z,100742.50
2022-08-14T06:00:36.881Z,100746.59
2022-08-14T06:03:10.754Z,100749.38
2022-08-14T06:05:43.971Z,100760.03
2022-08-14T06:08:35.394Z,100756.78
2022-08-14T06:11:08.961Z,100751.88
2022-08-14T06:13:45.437Z,100745.06
2022-08-14T06:16:18.921Z,100749.41
2022-08-14T06:18:52.652Z,100745.31
2022-08-14T06:21:26.420Z,100745.31
2022-08-14T06:23:56.383Z,100741.25
2022-08-14T06:26:30.159Z,100736.63
2022-08-14T06:29:00.926Z,100734.44
2022-08-14T06:31:31.169Z,100731.72
2022-08-14T06:35:03.521Z,100734.69
2022-08-14T06:36:53.726Z,100743.75
2022-08-14T06:39:36.503Z,100739.38
2022-08-14T06:42:08.113Z,100736.91
2022-08-14T06:44:58.409Z,100736.91
2022-08-14T06:47:30.329Z,100741.50
2022-08-14T06:50:00.182Z,100744.47
2022-08-14T06:52:32.684Z,100739.84
2022-08-14T06:55:02.597Z,100736.56
2022-08-14T06:57:38.960Z,100725.88
2022-08-14T07:00:22.281Z,100728.25
2022-08-14T07:03:12.213Z,100724.69
2022-08-14T07:05:57.896Z,100723.28
2022-08-14T07:08:33.840Z,100721.06
2022-08-14T07:11:06.178Z,100711.44
2022-08-14T07:13:36.102Z,100718.25
2022-08-14T07:16:06.938Z,100707.28
2022-08-14T07:18:40.685Z,100709.41
2022-08-14T07:21:11.951Z,100711.53
2022-08-14T07:23:44.802Z,100701.91
2022-08-14T07:26:16.603Z,100699.69
2022-08-14T07:28:47.314Z,100713.00
2022-08-14T07:31:17.892Z,100702.28
2022-08-14T07:33:50.376Z,100701.19
2022-08-14T07:36:27.059Z,100697.31
2022-08-14T07:39:13.123Z,100700.22
2022-08-14T07:41:44.476Z,100700.16
2022-08-14T07:44:29.543Z,100689.44
2022-08-14T07:47:05.253Z,100696.22
2022-08-14T07:49:35.372Z,100699.47
2022-08-14T07:52:05.649Z,100696.75
2022-08-14T07:54:40.839Z,100695.06
2022-08-14T07:57:22.318Z,100693.31
2022-08-14T07:59:54.940Z,100690.78
2022-08-14T08:02:26.265Z,100686.88
2022-08-14T08:04:58.956Z,100682.66
2022-08-14T08:07:32.148Z,100679.56
2022-08-14T08:10:31.419Z,100679.75
2022-08-14T08:13:18.801Z,100679.56
2022-08-14T08:15:57.438Z,100678.91
2022-08-14T08:18:31.081Z,100675.78
2022-08-14T08:21:01.388Z,100669.41
2022-08-14T08:23:40.268Z,100669.13
2022-08-14T08:26:16.017Z,100672.16
2022-08-14T08:28:57.737Z,100669.13
2022-08-14T08:31:32.888Z,100669.94
2022-08-14T08:34:14.255Z,100661.19
2022-08-14T08:36:48.676Z,100664.75
2022-08-14T08:39:22.561Z,100656.25
2022-08-14T08:41:55.846Z,100667.50
2022-08-14T08:44:34.490Z,100655.72
2022-08-14T08:47:06.636Z,100661.72
2022-08-14T08:49:52.785Z,100663.03
2022-08-14T08:52:31.821Z,100655.25
2022-08-14T08:55:04.660Z,100653.53
2022-08-14T08:57:39.594Z,100648.19
2022-08-14T09:00:29.406Z,100641.72
2022-08-14T09:03:03.358Z,100632.72
2022-08-14T09:05:35.656Z,100629.50
2022-08-14T09:08:26.655Z,100626.91
2022-08-14T09:11:02.777Z,100625.63
2022-08-14T09:13:54.156Z,100625.09
2022-08-14T09:16:26.522Z,100623.56
2022-08-14T09:18:56.823Z,100628.84
2022-08-14T09:21:31.198Z,100617.78
2022-08-14T09:24:28.784Z,100623.41
2022-08-14T09:26:54.631Z,100614.94
2022-08-14T09:29:28.772Z,100611.41
2022-08-14T09:32:03.417Z,100608.25
2022-08-14T09:35:08.302Z,100606.28
2022-08-14T09:37:50.330Z,100603.16
2022-08-14T09:40:33.683Z,100606.50
2022-08-14T09:43:19.967Z,100617.88
2022-08-14T09:45:58.629Z,100616.16
2022-08-14T09:48:32.626Z,100607.06
2022-08-14T09:54:18.203Z,100601.81
2022-08-14T09:56:45.867Z,100605.41
2022-08-14T09:59:23.667Z,100600.72
2022-08-14T10:01:57.345Z,100594.72
2022-08-14T10:04:34.711Z,100598.34
2022-08-14T10:07:06.241Z,100584.84
2022-08-14T10:09:57.813Z,100582.00
2022-08-14T10:12:46.405Z,100580.03
2022-08-14T10:15:22.379Z,100586.25
2022-08-14T10:18:09.665Z,100581.19
2022-08-14T10:20:57.943Z,100572.59
2022-08-14T10:23:33.771Z,100559.78
2022-08-14T10:26:08.415Z,100562.41
2022-08-14T10:29:17.566Z,100561.59
2022-08-14T10:31:44.744Z,100558.78
2022-08-14T10:34:29.087Z,100551.41
2022-08-14T10:37:14.584Z,100567.47
2022-08-14T10:39:47.021Z,100553.03
2022-08-14T10:42:39.196Z,100553.34
2022-08-14T10:45:22.374Z,100534.19
2022-08-14T10:48:08.209Z,100536.34
2022-08-14T10:50:46.618Z,100532.81
2022-08-14T10:53:17.234Z,100524.63
2022-08-14T10:55:50.431Z,100530.31
2022-08-14T10:58:34.320Z,100525.16
2022-08-14T11:01:07.989Z,100528.53
2022-08-14T11:03:56.958Z,100523.19
2022-08-14T11:06:31.374Z,100519.25
2022-08-14T11:09:01.327Z,100510.97
2022-08-14T11:11:37.135Z,100497.84
2022-08-14T11:14:09.401Z,100513.34
2022-08-14T11:16:53.472Z,100498.22
2022-08-14T11:19:26.752Z,100499.50
2022-08-14T11:22:02.558Z,100499.50
2022-08-14T11:24:54.092Z,100496.88
2022-08-14T11:27:33.500Z,100500.91
2022-08-14T11:30:51.515Z,100490.56
2022-08-14T11:32:58.974Z,100485.69
2022-08-14T11:35:36.953Z,100478.09
2022-08-14T11:38:18.148Z,100476.00
2022-08-14T11:40:48.955Z,100475.50
2022-08-14T11:43:19.131Z,100470.00
2022-08-14T11:46:03.725Z,100473.06
2022-08-14T11:49:02.606Z,100471.47
2022-08-14T11:51:30.429Z,100470.50
2022-08-14T11:54:06.415Z,100471.81
2022-08-14T11:56:39.820Z,100467.59
2022-08-14T11:59:11.863Z,100463.09
2022-08-14T12:01:41.721Z,100458.41
2022-08-14T12:04:31.791Z,100456.00
2022-08-14T12:07:04.977Z,100453.31
2022-08-14T12:09:43.149Z,100448.16
2022-08-14T12:12:35.630Z,100445.41
2022-08-14T12:15:09.003Z,100438.13
2022-08-14T12:17:49.739Z,100442.00
2022-08-14T12:20:30.104Z,100435.38
2022-08-14T12:23:05.591Z,100433.28
2022-08-14T12:25:38.664Z,100420.66
2022-08-14T12:28:26.743Z,100422.59
2022-08-14T12:31:03.704Z,100421.47
2022-08-14T12:33:34.998Z,100412.31
2022-08-14T12:36:12.284Z,100415.22
2022-08-14T12:38:54.323Z,100414.09
2022-08-14T12:41:34.392Z,100404.22
2022-08-14T12:44:09.725Z,100403.75
2022-08-14T12:46:43.385Z,100400.03
2022-08-14T12:49:20.493Z,100397.44
2022-08-14T12:51:59.619Z,100393.38
2022-08-14T12:54:32.031Z,100383.41
2022-08-14T12:57:19.712Z,100385.81
2022-08-14T12:59:50.769Z,100383.56
2022-08-14T13:02:29.625Z,100384.50
2022-08-14T13:04:59.619Z,100382.25
2022-08-14T13:07:32.604Z,100376.44
2022-08-14T13:10:47.640Z,100375.63
2022-08-14T13:13:15.420Z,100362.34
2022-08-14T13:15:47.400Z,100364.13
2022-08-14T13:18:18.754Z,100367.19
2022-08-14T13:20:57.825Z,100350.81
2022-08-14T13:23:37.439Z,100360.00
2022-08-14T13:26:10.105Z,100342.25
2022-08-14T13:29:02.481Z,100335.78
2022-08-14T13:31:39.568Z,100331.44
2022-08-14T13:34:11.194Z,100329.97
2022-08-14T13:36:54.468Z,100320.13
2022-08-14T13:39:36.677Z,100318.81
2022-08-14T13:42:14.353Z,100310.25
2022-08-14T13:44:48.536Z,100301.16
2022-08-14T13:47:20.284Z,100295.78
2022-08-14T13:49:57.649Z,100304.97
2022-08-14T13:52:59.498Z,100288.63
2022-08-14T13:55:22.968Z,100297.50
2022-08-14T13:58:02.985Z,100284.56
2022-08-14T14:00:51.815Z,100282.31
2022-08-14T14:03:28.792Z,100291.06
2022-08-14T14:06:03.321Z,100287.00
2022-08-14T14:08:43.528Z,100278.28
2022-08-14T14:11:19.507Z,100269.72
2022-08-14T14:13:51.065Z,100271.97
2022-08-14T14:16:30.925Z,100260.81
2022-08-14T14:19:09.153Z,100252.41
2022-08-14T14:21:41.930Z,100251.91
2022-08-14T14:24:15.348Z,100256.13
2022-08-14T14:26:50.623Z,100241.56
2022-08-14T14:29:23.964Z,100233.97
2022-08-14T14:32:01.132Z,100235.59
2022-08-14T14:34:33.443Z,100235.09
2022-08-14T14:37:06.166Z,100227.81
2022-08-14T14:39:37.826Z,100233.31
2022-08-14T14:42:35.411Z,100222.84
2022-08-14T14:45:15.522Z,100235.75
2022-08-14T14:47:51.618Z,100229.94
2022-08-14T14:50:29.371Z,100226.88
2022-08-14T14:53:12.876Z,100215.41
2022-08-14T14:56:47.380Z,100218.97
2022-08-14T14:58:35.364Z,100217.03
2022-08-14T15:03:56.422Z,100216.03
2022-08-14T15:06:30.276Z,100212.16
2022-08-14T15:09:05.509Z,100219.59
2022-08-14T15:11:38.951Z,100213.63
2022-08-14T15:14:54.644Z,100215.06
2022-08-14T15:16:59.202Z,100200.84
2022-08-14T15:19:32.914Z,100193.34
2022-08-14T15:22:02.936Z,100201.56
2022-08-14T15:24:32.817Z,100194.16
2022-08-14T15:27:05.640Z,100201.81
2022-08-14T15:29:38.918Z,100209.22
2022-08-14T15:32:14.021Z,100198.81
2022-08-14T15:34:51.128Z,100205.44
2022-08-14T15:37:23.876Z,100195.91
2022-08-14T15:39:54.184Z,100194.59
2022-08-14T15:42:24.626Z,100188.31
2022-08-14T15:45:01.353Z,100193.78
2022-08-14T15:47:33.121Z,100189.13
2022-08-14T15:50:09.640Z,100185.88
2022-08-14T15:52:43.161Z,100183.63
2022-08-14T15:55:16.829Z,100186.38
2022-08-14T15:58:02.449Z,100184.44
2022-08-14T16:00:49.421Z,100190.72
2022-08-14T16:03:27.878Z,100179.41
2022-08-14T16:06:15.244Z,100180.53
2022-08-14T16:08:50.251Z,100176.97
2022-08-14T16:11:33.069Z,100172.44
2022-08-14T16:14:06.851Z,100168.56
2022-08-14T16:16:50.643Z,100172.94
2022-08-14T16:19:27.438Z,100168.56
2022-08-14T16:23:10.671Z,100163.09
2022-08-14T16:25:01.928Z,100157.59
2022-08-14T16:27:41.075Z,100154.88
2022-08-14T16:30:25.561Z,100154.06
2022-08-14T16:33:01.155Z,100147.75
2022-08-14T16:35:43.229Z,100149.38
2022-08-14T16:40:25.544Z,100146.97
2022-08-14T16:41:27.198Z,100143.41
2022-08-14T16:44:04.514Z,100135.81
2022-08-14T16:46:43.527Z,100140.31
2022-08-14T16:49:16.450Z,100141.44
2022-08-14T16:51:52.721Z,100131.09
2022-08-14T16:54:35.365Z,100134.97
2022-08-14T16:57:17.405Z,100116.59
2022-08-14T16:59:57.495Z,100127.72
2022-08-14T17:02:40.680Z,100125.31
2022-08-14T17:05:20.814Z,100116.91
2022-08-14T17:08:32.510Z,100116.69
2022-08-14T17:11:10.570Z,100107.06
2022-08-14T17:13:58.371Z,100107.06
2022-08-14T17:16:35.949Z,100108.19
2022-08-14T17:19:14.476Z,100105.22
2022-08-14T17:21:52.626Z,100107.16
2022-08-14T17:24:58.200Z,100105.06
2022-08-14T17:27:18.287Z,100101.81
2022-08-14T17:29:56.032Z,100107.31
2022-08-14T17:32:56.715Z,100105.38
2022-08-14T17:35:57.761Z,100101.81
2022-08-14T17:38:38.559Z,100099.56
2022-08-14T17:41:32.941Z,100105.69
2022-08-14T17:44:34.028Z,100099.72
2022-08-14T17:47:14.812Z,100102.63
2022-08-14T17:49:51.802Z,100104.06
2022-08-14T17:52:34.256Z,100106.31
2022-08-14T17:55:05.746Z,100112.63
2022-08-14T17:57:41.143Z,100122.28
2022-08-14T18:00:17.822Z,100126.09
2022-08-14T18:02:50.383Z,100128.69
2022-08-14T18:06:06.960Z,100128.31
2022-08-14T18:08:32.342Z,100135.06
2022-08-14T18:11:05.287Z,100128.25
2022-08-14T18:13:49.753Z,100130.78
2022-08-14T18:16:26.206Z,100134.47
2022-08-14T18:19:02.802Z,100135.72
2022-08-14T18:21:56.281Z,100131.19
2022-08-14T18:24:29.275Z,100137.09
2022-08-14T18:27:09.093Z,100142.09
2022-08-14T18:29:54.751Z,100140.78
2022-08-14T18:32:47.323Z,100139.25
2022-08-14T18:35:46.006Z,100136.19
2022-08-14T18:38:26.215Z,100144.41
2022-08-14T18:41:37.412Z,100144.81
2022-08-14T18:44:10.526Z,100146.16
2022-08-14T18:47:15.043Z,100139.16
2022-08-14T18:50:26.319Z,100145.75
2022-08-14T18:53:10.904Z,100151.84
2022-08-14T18:55:53.852Z,100155.22
2022-08-14T18:58:31.301Z,100153.91
2022-08-14T19:01:06.264Z,100159.19
2022-08-14T19:03:57.871Z,100157.38
2022-08-14T19:06:56.461Z,100165.69
2022-08-14T19:09:54.326Z,100163.56
2022-08-14T19:13:05.010Z,100169.38
2022-08-14T19:15:44.025Z,100170.47
2022-08-14T19:18:29.414Z,100178.47
2022-08-14T19:21:02.572Z,100178.88
2022-08-14T19:24:00.104Z,100176.22
2022-08-14T19:26:37.657Z,100181.00
2022-08-14T19:29:23.407Z,100176.63
2022-08-14T19:31:56.744Z,100179.69
2022-08-14T19:34:52.207Z,100166.13
2022-08-14T19:37:47.796Z,100171.47
2022-08-14T19:40:39.299Z,100167.00
2022-08-14T19:43:09.845Z,100155.44
2022-08-14T19:45:40.711Z,100157.19
2022-08-14T19:48:15.880Z,100154.56
2022-08-14T19:50:46.414Z,100162.25
2022-08-14T19:53:18.455Z,100149.50
2022-08-14T19:56:02.333Z,100161.06
2022-08-14T19:58:54.143Z,100159.94
2022-08-14T20:01:37.041Z,100153.03
2022-08-14T20:04:45.086Z,100143.72
2022-08-14T20:07:01.629Z,100153.84
2022-08-14T20:11:11.574Z,100153.34
2022-08-14T20:12:57.249Z,100149.69
2022-08-14T20:15:46.939Z,100146.97
2022-08-14T20:18:45.841Z,100145.34
2022-08-14T20:21:07.769Z,100147.28
2022-08-14T20:23:38.942Z,100148.19
2022-08-14T20:26:31.974Z,100147.75
2022-08-14T20:29:09.255Z,100143.41
2022-08-14T20:31:45.663Z,100140.47
2022-08-14T20:34:35.281Z,100145.75
2022-08-14T20:37:09.942Z,100143.91
2022-08-14T20:39:53.849Z,100136.81
2022-08-14T20:42:38.412Z,100142.00
2022-08-14T20:45:24.193Z,100139.88
2022-08-14T20:48:01.055Z,100145.63
2022-08-14T20:50:33.108Z,100133.88
2022-08-14T20:53:05.932Z,100138.84
2022-08-14T20:55:45.122Z,100135.31
2022-08-14T20:58:42.042Z,100130.66
2022-08-14T21:01:35.892Z,100134.91
2022-08-14T21:04:23.787Z,100140.06
2022-08-14T21:07:25.236Z,100148.56
2022-08-14T21:10:06.226Z,100143.72
2022-08-14T21:13:26.462Z,100146.44
2022-08-14T21:15:32.827Z,100142.09
2022-08-14T21:18:05.405Z,100141.09
2022-08-14T21:20:36.978Z,100140.47
2022-08-14T21:23:07.536Z,100138.66
2022-08-14T21:25:38.532Z,100143.31
2022-08-14T21:28:20.924Z,100137.03
2022-08-14T21:31:00.185Z,100144.63
2022-08-14T21:33:33.970Z,100141.97
2022-08-14T21:36:07.912Z,100148.25
2022-08-14T21:38:39.317Z,100139.53
2022-08-14T21:41:42.601Z,100146.41
2022-08-14T21:44:18.259Z,100141.75
2022-08-14T21:46:53.373Z,100136.41
2022-08-14T21:49:38.299Z,100132.03
2022-08-14T21:52:50.466Z,100139.69
2022-08-14T21:55:09.161Z,100138.59
2022-08-14T21:58:46.099Z,100137.06
2022-08-14T22:00:39.451Z,100135.44
2022-08-14T22:03:17.221Z,100135.25
2022-08-14T22:05:52.319Z,100123.28
2022-08-14T22:08:26.747Z,100120.06
2022-08-14T22:10:59.127Z,100124.72
2022-08-14T22:13:32.096Z,100119.84
2022-08-14T22:16:03.484Z,100113.88
2022-08-14T22:18:34.206Z,100116.41
2022-08-14T22:21:16.748Z,100110.72
2022-08-14T22:23:47.141Z,100112.13
2022-08-14T22:26:22.526Z,100110.81
2022-08-14T22:29:00.782Z,100112.75
2022-08-14T22:31:35.284Z,100108.38
2022-08-14T22:34:10.336Z,100104.59
2022-08-14T22:36:51.695Z,100107.94
2022-08-14T22:40:16.928Z,100109.03
2022-08-14T22:42:21.522Z,100102.75
2022-08-14T22:44:56.758Z,100104.16
2022-08-14T22:47:40.291Z,100098.19
2022-08-14T22:50:29.488Z,100095.56
2022-08-14T22:53:06.766Z,100101.31
2022-08-14T22:55:36.840Z,100107.69
2022-08-14T22:58:07.256Z,100105.84
2022-08-14T23:00:37.604Z,100102.09
2022-08-14T23:03:17.613Z,100105.72
2022-08-14T23:05:54.546Z,100102.16
2022-08-14T23:08:56.885Z,100102.16
2022-08-14T23:11:18.140Z,100099.41
2022-08-14T23:13:48.108Z,100103.25
2022-08-14T23:16:19.986Z,100103.56
2022-08-14T23:18:53.449Z,100096.78
2022-08-14T23:21:28.678Z,100099.00
2022-08-14T23:24:03.137Z,100098.19
2022-08-14T23:26:48.412Z,100094.13
2022-08-14T23:29:22.605Z,100091.69
2022-08-14T23:31:53.050Z,100086.22
2022-08-14T23:34:25.264Z,100083.59
2022-08-14T23:37:03.701Z,100087.44
2022-08-14T23:39:39.232Z,100086.41
2022-08-14T23:42:11.975Z,100080.44
2022-08-14T23:44:49.020Z,100079.63
2022-08-14T23:47:26.324Z,100079.38
2022-08-14T23:50:00.939Z,100075.31
2022-08-14T23:52:50.479Z,100081.88
2022-08-14T23:55:32.096Z,100083.28
2022-08-14T23:58:02.793Z,100072.38
